Terminal Aerodrome Forecast
Issued by NWS

Home | Current Version | Previous Version | Text Only | Print | Product List | Glossary On
Versions: 1 2 3 4 5 6 7 8 9 10 11 12 13 14 15 16 17 18 19 20 21 22 23 24 25
406
FTUS41 KGYX 211720
TAFLEB
TAF
KLEB 211720Z 2118/2218 20008G16KT P6SM SKC
     FM212200 19008KT P6SM SCT250
     FM221200 00000KT P6SM BKN050 PROB30 2212/2215 4SM -SHRA BKN025
     FM221500 31005KT P6SM BKN025=

USA.gov is the U.S. government's official web portal to all federal, state and local government web resources and services.